createdAt,value
2023-03-29T00:00:57.792Z,101430.00
2023-03-29T00:02:59.357Z,101428.41
2023-03-29T00:05:01.030Z,101405.28
2023-03-29T00:07:02.687Z,101424.25
2023-03-29T00:09:04.448Z,101420.94
2023-03-29T00:11:05.876Z,101425.81
2023-03-29T00:13:07.349Z,101420.81
2023-03-29T00:15:09.026Z,101423.91
2023-03-29T00:17:10.487Z,101421.25
2023-03-29T00:19:12.198Z,101410.41
2023-03-29T00:21:13.728Z,101416.41
2023-03-29T00:23:15.124Z,101401.03
2023-03-29T00:25:16.774Z,101438.69
2023-03-29T00:27:18.223Z,101407.88
2023-03-29T00:29:19.630Z,101428.97
2023-03-29T00:31:21.340Z,101420.50
2023-03-29T00:33:22.754Z,101429.75
2023-03-29T00:35:24.242Z,101429.78
2023-03-29T00:37:25.820Z,101436.50
2023-03-29T00:39:27.502Z,101417.22
2023-03-29T00:41:28.909Z,101428.97
2023-03-29T00:43:30.374Z,101429.06
2023-03-29T00:45:31.933Z,101432.59
2023-03-29T00:47:56.481Z,101429.31
2023-03-29T00:50:04.961Z,101432.22
2023-03-29T00:52:07.504Z,101428.38
2023-03-29T00:54:13.853Z,101433.13
2023-03-29T00:56:37.039Z,101431.19
2023-03-29T00:58:43.968Z,101431.38
2023-03-29T01:00:52.345Z,101433.06
2023-03-29T01:02:57.448Z,101428.50
2023-03-29T01:05:21.209Z,101426.84
2023-03-29T01:07:30.049Z,101428.38
2023-03-29T01:09:35.670Z,101423.94
2023-03-29T01:11:46.601Z,101432.47
2023-03-29T01:14:13.780Z,101418.78
2023-03-29T01:16:16.225Z,101431.13
2023-03-29T01:18:18.148Z,101423.97
2023-03-29T01:20:38.108Z,101427.03
2023-03-29T01:22:50.695Z,101428.69
2023-03-29T01:25:19.646Z,101429.84
2023-03-29T01:27:32.384Z,101426.44
2023-03-29T01:29:38.579Z,101420.50
2023-03-29T01:31:44.230Z,101425.69
2023-03-29T01:33:50.934Z,101403.94
2023-03-29T01:36:01.303Z,101425.38
2023-03-29T01:38:24.107Z,101416.53
2023-03-29T01:40:25.670Z,101418.50
2023-03-29T01:42:31.411Z,101418.53
2023-03-29T01:44:47.553Z,101421.44
2023-03-29T01:46:55.925Z,101411.16
2023-03-29T01:49:16.525Z,101405.84
2023-03-29T01:51:28.233Z,101397.53
2023-03-29T01:53:32.366Z,101415.31
2023-03-29T01:55:37.814Z,101415.38
2023-03-29T01:57:43.685Z,101418.38
2023-03-29T01:59:46.332Z,101420.94
2023-03-29T02:01:56.220Z,101415.94
2023-03-29T02:04:03.529Z,101414.63
2023-03-29T02:06:05.446Z,101411.28
2023-03-29T02:08:09.190Z,101418.28
2023-03-29T02:10:12.129Z,101418.97
2023-03-29T02:12:16.840Z,101411.97
2023-03-29T02:14:18.526Z,101419.41
2023-03-29T02:16:20.845Z,101417.69
2023-03-29T02:18:22.732Z,101405.84
2023-03-29T02:20:30.135Z,101418.59
2023-03-29T02:22:41.218Z,101415.59
2023-03-29T02:24:45.293Z,101416.38
2023-03-29T02:26:47.116Z,101416.03
2023-03-29T02:28:48.634Z,101417.19
2023-03-29T02:31:05.635Z,101419.13
2023-03-29T02:33:26.522Z,101420.72
2023-03-29T02:35:34.837Z,101419.09
2023-03-29T02:37:37.905Z,101405.13
2023-03-29T02:39:40.323Z,101418.56
2023-03-29T02:41:45.737Z,101421.06
2023-03-29T02:43:48.073Z,101421.88
2023-03-29T02:45:51.003Z,101429.59
2023-03-29T02:47:56.260Z,101411.00
2023-03-29T02:49:58.890Z,101435.03
2023-03-29T02:52:11.200Z,101435.66
2023-03-29T02:54:18.741Z,101425.50
2023-03-29T02:56:20.729Z,101423.91
2023-03-29T02:58:22.129Z,101419.28
2023-03-29T03:00:23.772Z,101431.47
2023-03-29T03:02:26.168Z,101440.88
2023-03-29T03:04:27.688Z,101440.00
2023-03-29T03:06:29.406Z,101440.28
2023-03-29T03:08:30.840Z,101442.16
2023-03-29T03:10:32.443Z,101444.72
2023-03-29T03:12:34.073Z,101432.19
2023-03-29T03:14:35.508Z,101449.53
2023-03-29T03:16:37.512Z,101439.22
2023-03-29T03:18:39.093Z,101430.97
2023-03-29T03:20:40.536Z,101437.06
2023-03-29T03:22:44.700Z,101450.63
2023-03-29T03:24:46.346Z,101452.41
2023-03-29T03:26:47.859Z,101442.22
2023-03-29T03:28:49.269Z,101442.25
2023-03-29T03:30:51.374Z,101454.91
2023-03-29T03:32:53.363Z,101448.13
2023-03-29T03:34:54.850Z,101454.56
2023-03-29T03:36:56.422Z,101446.09
2023-03-29T03:38:57.822Z,101453.06
2023-03-29T03:41:00.814Z,101435.81
2023-03-29T03:43:02.739Z,101452.03
2023-03-29T03:45:04.755Z,101449.84
2023-03-29T03:47:06.554Z,101453.06
2023-03-29T03:49:08.134Z,101452.78
2023-03-29T03:51:10.078Z,101452.94
2023-03-29T03:53:11.699Z,101443.09
2023-03-29T03:55:13.080Z,101436.13
2023-03-29T03:57:14.502Z,101443.88
2023-03-29T03:59:16.318Z,101454.22
2023-03-29T04:01:17.891Z,101454.31
2023-03-29T04:03:19.497Z,101460.38
2023-03-29T04:05:21.132Z,101455.16
2023-03-29T04:07:22.743Z,101461.75
2023-03-29T04:09:24.178Z,101437.53
2023-03-29T04:11:25.786Z,101441.88
2023-03-29T04:13:27.505Z,101448.41
2023-03-29T04:15:29.549Z,101462.91
2023-03-29T04:17:31.069Z,101461.25
2023-03-29T04:19:32.702Z,101439.72
2023-03-29T04:21:34.108Z,101449.72
2023-03-29T04:23:36.196Z,101439.72
2023-03-29T04:25:37.648Z,101454.78
2023-03-29T04:27:39.285Z,101462.47
2023-03-29T04:29:40.907Z,101456.47
2023-03-29T04:31:42.339Z,101465.81
2023-03-29T04:33:43.834Z,101465.31
2023-03-29T04:35:45.248Z,101451.19
2023-03-29T04:37:46.750Z,101466.94
2023-03-29T04:39:49.758Z,101465.78
2023-03-29T04:41:51.391Z,101459.09
2023-03-29T04:43:52.868Z,101466.00
2023-03-29T04:45:54.321Z,101461.56
2023-03-29T04:47:59.457Z,101463.53
2023-03-29T04:50:01.170Z,101467.16
2023-03-29T04:52:02.573Z,101472.41
2023-03-29T04:54:04.374Z,101467.94
2023-03-29T04:56:06.439Z,101465.22
2023-03-29T04:58:07.885Z,101454.25
2023-03-29T05:00:10.028Z,101466.34
2023-03-29T05:02:11.543Z,101461.06
2023-03-29T05:04:13.091Z,101447.47
2023-03-29T05:06:14.744Z,101456.47
2023-03-29T05:08:16.611Z,101456.88
2023-03-29T05:10:18.096Z,101460.53
2023-03-29T05:12:19.750Z,101453.69
2023-03-29T05:14:21.342Z,101453.25
2023-03-29T05:16:22.834Z,101453.66
2023-03-29T05:18:24.410Z,101448.50
2023-03-29T05:20:26.461Z,101453.94
2023-03-29T05:22:27.869Z,101445.03
2023-03-29T05:24:29.470Z,101452.59
2023-03-29T05:26:31.279Z,101452.38
2023-03-29T05:28:32.659Z,101439.38
2023-03-29T05:30:34.153Z,101458.91
2023-03-29T05:32:38.797Z,101432.72
2023-03-29T05:34:40.439Z,101449.75
2023-03-29T05:36:42.138Z,101451.88
2023-03-29T05:38:43.788Z,101448.28
2023-03-29T05:40:45.174Z,101452.34
2023-03-29T05:42:46.788Z,101452.94
2023-03-29T05:44:48.269Z,101443.63
2023-03-29T05:46:49.672Z,101456.31
2023-03-29T05:48:51.626Z,101432.81
2023-03-29T05:50:54.895Z,101455.91
2023-03-29T05:52:56.317Z,101451.16
2023-03-29T05:54:57.908Z,101458.84
2023-03-29T05:56:59.441Z,101448.84
2023-03-29T05:59:00.902Z,101464.31
2023-03-29T06:01:02.569Z,101458.16
2023-03-29T06:03:14.098Z,101458.16
2023-03-29T06:05:21.573Z,101441.22
2023-03-29T06:07:23.402Z,101448.09
2023-03-29T06:09:24.872Z,101459.09
2023-03-29T06:11:26.376Z,101459.56
2023-03-29T06:13:29.559Z,101467.63
2023-03-29T06:15:31.222Z,101452.72
2023-03-29T06:17:32.650Z,101467.69
2023-03-29T06:19:34.216Z,101449.31
2023-03-29T06:21:35.792Z,101446.38
2023-03-29T06:23:37.340Z,101465.28
2023-03-29T06:25:39.009Z,101464.25
2023-03-29T06:27:40.582Z,101451.22
2023-03-29T06:29:42.797Z,101461.91
2023-03-29T06:31:44.400Z,101464.97
2023-03-29T06:33:46.040Z,101476.31
2023-03-29T06:35:48.773Z,101469.69
2023-03-29T06:37:50.367Z,101449.06
2023-03-29T06:39:53.231Z,101452.34
2023-03-29T06:41:54.786Z,101453.16
2023-03-29T06:43:56.468Z,101464.97
2023-03-29T06:45:58.645Z,101441.56
2023-03-29T06:48:00.222Z,101453.56
2023-03-29T06:50:01.895Z,101448.75
2023-03-29T06:52:03.738Z,101436.78
2023-03-29T06:54:05.165Z,101455.59
2023-03-29T06:56:06.985Z,101427.16
2023-03-29T06:58:08.563Z,101453.19
2023-03-29T07:00:11.202Z,101454.09
2023-03-29T07:02:14.100Z,101440.00
2023-03-29T07:04:15.750Z,101449.97
2023-03-29T07:06:17.216Z,101454.53
2023-03-29T07:08:19.019Z,101438.59
2023-03-29T07:10:26.372Z,101448.63
2023-03-29T07:12:27.831Z,101448.53
2023-03-29T07:14:29.443Z,101443.25
2023-03-29T07:16:31.143Z,101423.50
2023-03-29T07:18:32.591Z,101449.38
2023-03-29T07:20:34.133Z,101444.38
2023-03-29T07:22:35.691Z,101442.94
2023-03-29T07:24:37.162Z,101429.78
2023-03-29T07:26:40.489Z,101448.41
2023-03-29T07:28:45.567Z,101446.81
2023-03-29T07:30:46.985Z,101449.00
2023-03-29T07:32:50.456Z,101443.69
2023-03-29T07:34:51.976Z,101440.22
2023-03-29T07:36:53.407Z,101442.13
2023-03-29T07:38:56.424Z,101445.19
2023-03-29T07:40:58.528Z,101443.00
2023-03-29T07:42:59.956Z,101445.72
2023-03-29T07:45:01.637Z,101442.91
2023-03-29T07:47:03.653Z,101440.47
2023-03-29T07:49:05.060Z,101441.97
2023-03-29T07:51:07.376Z,101449.47
2023-03-29T07:53:09.488Z,101441.50
2023-03-29T07:55:12.559Z,101442.09
2023-03-29T07:57:14.643Z,101442.56
2023-03-29T07:59:16.442Z,101433.69
2023-03-29T08:01:19.456Z,101421.09
2023-03-29T08:03:21.611Z,101436.94
2023-03-29T08:05:37.863Z,101433.66
2023-03-29T08:07:44.567Z,101440.63
2023-03-29T08:09:46.165Z,101428.47
2023-03-29T08:11:47.841Z,101425.44
2023-03-29T08:13:49.252Z,101419.69
2023-03-29T08:15:50.756Z,101429.84
2023-03-29T08:17:52.356Z,101381.59
2023-03-29T08:19:53.910Z,101425.13
2023-03-29T08:21:55.562Z,101420.09
2023-03-29T08:23:57.149Z,101415.84
2023-03-29T08:25:58.585Z,101416.59
2023-03-29T08:28:00.268Z,101417.94
2023-03-29T08:30:03.203Z,101405.81
2023-03-29T08:32:04.942Z,101416.69
2023-03-29T08:34:06.496Z,101416.66
2023-03-29T08:36:08.214Z,101417.19
2023-03-29T08:38:09.683Z,101414.03
2023-03-29T08:40:23.953Z,101410.97
2023-03-29T08:42:40.272Z,101416.53
2023-03-29T08:45:00.448Z,101415.31
2023-03-29T08:47:17.968Z,101407.56
2023-03-29T08:49:21.440Z,101394.09
2023-03-29T08:51:28.427Z,101404.44
2023-03-29T08:53:35.930Z,101404.38
2023-03-29T08:55:43.096Z,101404.47
2023-03-29T08:57:48.286Z,101396.19
2023-03-29T08:59:52.869Z,101405.28
2023-03-29T09:01:57.203Z,101397.03
2023-03-29T09:04:13.868Z,101398.22
2023-03-29T09:06:19.360Z,101377.50
2023-03-29T09:08:22.258Z,101386.34
2023-03-29T09:10:34.344Z,101387.84
2023-03-29T09:12:47.539Z,101365.31
2023-03-29T09:15:10.599Z,101370.34
2023-03-29T09:17:38.887Z,101390.22
2023-03-29T09:19:55.274Z,101383.63
2023-03-29T09:21:59.578Z,101388.94
2023-03-29T09:24:34.942Z,101380.88
2023-03-29T09:26:45.538Z,101378.69
2023-03-29T09:28:50.027Z,101381.91
2023-03-29T09:31:20.392Z,101374.25
2023-03-29T09:33:25.130Z,101377.53
2023-03-29T09:36:01.439Z,101376.22
2023-03-29T09:38:04.759Z,101367.09
2023-03-29T09:40:14.509Z,101364.16
2023-03-29T09:42:17.646Z,101362.28
2023-03-29T09:44:30.988Z,101370.53
2023-03-29T09:46:41.791Z,101338.81
2023-03-29T09:48:45.008Z,101353.25
2023-03-29T09:50:49.305Z,101361.38
2023-03-29T09:52:50.986Z,101353.41
2023-03-29T09:54:52.512Z,101362.25
2023-03-29T09:56:54.014Z,101353.94
2023-03-29T09:58:56.015Z,101362.34
2023-03-29T10:00:59.358Z,101353.69
2023-03-29T10:03:00.962Z,101332.56
2023-03-29T10:05:05.769Z,101338.03
2023-03-29T10:07:07.637Z,101347.19
2023-03-29T10:09:16.444Z,101348.63
2023-03-29T10:11:28.759Z,101339.97
2023-03-29T10:13:32.823Z,101334.09
2023-03-29T10:15:34.226Z,101339.84
2023-03-29T10:17:40.689Z,101338.66
2023-03-29T10:19:51.062Z,101335.31
2023-03-29T10:21:53.910Z,101336.63
2023-03-29T10:23:58.879Z,101334.78
2023-03-29T10:26:03.098Z,101340.81
2023-03-29T10:28:10.870Z,101335.69
2023-03-29T10:30:21.154Z,101301.28
2023-03-29T10:32:22.705Z,101340.94
2023-03-29T10:34:24.254Z,101335.31
2023-03-29T10:36:27.359Z,101341.59
2023-03-29T10:38:30.034Z,101336.34
2023-03-29T10:40:40.082Z,101332.31
2023-03-29T10:42:47.490Z,101328.28
2023-03-29T10:44:54.862Z,101321.56
2023-03-29T10:46:56.284Z,101321.09
2023-03-29T10:49:04.080Z,101309.50
2023-03-29T10:51:06.542Z,101323.16
2023-03-29T10:53:34.749Z,101276.94
2023-03-29T10:55:52.631Z,101311.13
2023-03-29T10:58:17.932Z,101309.72
2023-03-29T11:00:31.509Z,101305.41
2023-03-29T11:02:43.130Z,101316.78
2023-03-29T11:04:59.724Z,101310.00
2023-03-29T11:07:15.702Z,101294.03
2023-03-29T11:09:50.631Z,101309.56
2023-03-29T11:12:12.182Z,101301.44
2023-03-29T11:14:25.169Z,101300.59
2023-03-29T11:16:43.090Z,101298.69
2023-03-29T11:19:13.686Z,101298.28
2023-03-29T11:21:50.809Z,101291.53
2023-03-29T11:24:25.025Z,101290.88
2023-03-29T11:26:36.117Z,101287.16
2023-03-29T11:28:49.320Z,101284.16
2023-03-29T11:31:21.273Z,101275.63
2023-03-29T11:33:35.079Z,101270.50
2023-03-29T11:35:41.296Z,101265.78
2023-03-29T11:37:51.533Z,101273.91
2023-03-29T11:40:11.585Z,101262.66
2023-03-29T11:42:21.441Z,101248.75
2023-03-29T11:44:36.366Z,101266.00
2023-03-29T11:47:05.992Z,101250.78
2023-03-29T11:49:21.156Z,101247.47
2023-03-29T11:51:32.228Z,101231.50
2023-03-29T11:53:46.281Z,101244.94
2023-03-29T11:55:49.523Z,101241.06
2023-03-29T11:58:19.776Z,101226.84
2023-03-29T12:00:37.340Z,101228.88
2023-03-29T12:03:10.557Z,101232.13
2023-03-29T12:05:20.012Z,101236.28
2023-03-29T12:07:39.883Z,101221.66
2023-03-29T12:09:44.855Z,101177.41
2023-03-29T12:11:55.092Z,101217.56
2023-03-29T12:14:21.796Z,101227.53
2023-03-29T12:16:42.049Z,101212.09
2023-03-29T12:18:48.288Z,101213.53
2023-03-29T12:20:58.561Z,101202.94
2023-03-29T12:23:00.297Z,101196.63
2023-03-29T12:25:04.614Z,101201.31
2023-03-29T12:27:20.850Z,101199.94
2023-03-29T12:29:59.057Z,101186.19
2023-03-29T12:32:12.625Z,101194.72
2023-03-29T12:34:29.195Z,101191.91
2023-03-29T12:36:59.750Z,101188.81
2023-03-29T12:39:01.515Z,101187.88
2023-03-29T12:41:15.064Z,101191.31
2023-03-29T12:43:39.527Z,101187.06
2023-03-29T12:45:44.890Z,101179.78
2023-03-29T12:47:48.822Z,101175.91
2023-03-29T12:49:58.381Z,101178.13
2023-03-29T12:52:03.017Z,101177.81
2023-03-29T12:54:16.897Z,101179.81
2023-03-29T12:56:24.169Z,101175.63
2023-03-29T12:58:28.316Z,101160.78
2023-03-29T13:00:44.675Z,101164.56
2023-03-29T13:03:01.696Z,101158.50
2023-03-29T13:05:03.388Z,101161.22
2023-03-29T13:07:05.674Z,101152.63
2023-03-29T13:09:25.712Z,101156.09
2023-03-29T13:11:33.062Z,101152.16
2023-03-29T13:13:37.176Z,101157.47
2023-03-29T13:15:39.618Z,101151.00
2023-03-29T13:17:57.114Z,101155.59
2023-03-29T13:20:21.645Z,101137.53
2023-03-29T13:22:41.874Z,101138.03
2023-03-29T13:25:04.669Z,101139.25
2023-03-29T13:27:34.331Z,101141.50
2023-03-29T13:30:06.821Z,101142.38
2023-03-29T13:32:32.854Z,101144.00
2023-03-29T13:34:49.067Z,101134.31
2023-03-29T13:37:00.297Z,101139.47
2023-03-29T13:39:05.056Z,101134.94
2023-03-29T13:41:27.579Z,101134.06
2023-03-29T13:43:32.530Z,101127.63
2023-03-29T13:45:34.104Z,101115.09
2023-03-29T13:47:43.221Z,101126.94
2023-03-29T13:49:54.193Z,101125.56
2023-03-29T13:52:02.583Z,101120.09
2023-03-29T13:54:26.715Z,101122.78
2023-03-29T13:56:38.495Z,101125.59
2023-03-29T13:58:47.175Z,101103.25
2023-03-29T14:01:27.139Z,101116.56
2023-03-29T14:03:31.739Z,101114.41
2023-03-29T14:05:47.811Z,101109.09
2023-03-29T14:07:52.065Z,101115.50
2023-03-29T14:09:56.665Z,101101.00
2023-03-29T14:12:00.224Z,101113.25
2023-03-29T14:14:04.989Z,101117.84
2023-03-29T14:16:10.055Z,101115.81
2023-03-29T14:18:18.500Z,101113.44
2023-03-29T14:20:19.955Z,101100.53
2023-03-29T14:22:21.933Z,101112.44
2023-03-29T14:24:27.968Z,101113.03
2023-03-29T14:26:34.206Z,101106.88
2023-03-29T14:28:36.580Z,101104.22
2023-03-29T14:30:37.983Z,101108.53
2023-03-29T14:32:39.428Z,101097.25
2023-03-29T14:34:41.149Z,101105.59
2023-03-29T14:36:47.576Z,101111.88
2023-03-29T14:38:53.107Z,101108.91
2023-03-29T14:40:59.657Z,101107.97
2023-03-29T14:43:06.901Z,101107.09
2023-03-29T14:45:15.420Z,101106.41
2023-03-29T14:47:27.445Z,101101.75
2023-03-29T14:49:29.241Z,101105.03
2023-03-29T14:51:30.765Z,101101.81
2023-03-29T14:53:32.873Z,101080.06
2023-03-29T14:55:34.672Z,101097.19
2023-03-29T14:57:36.732Z,101099.97
2023-03-29T14:59:42.216Z,101096.38
2023-03-29T15:01:44.447Z,101097.91
2023-03-29T15:03:56.495Z,101096.88
2023-03-29T15:06:02.665Z,101088.69
2023-03-29T15:08:06.264Z,101086.44
2023-03-29T15:10:08.276Z,101082.28
2023-03-29T15:12:15.929Z,101078.47
2023-03-29T15:14:20.126Z,101079.13
2023-03-29T15:16:22.322Z,101080.81
2023-03-29T15:18:35.000Z,101072.81
2023-03-29T15:20:38.596Z,101080.16
2023-03-29T15:22:51.658Z,101078.59
2023-03-29T15:24:53.360Z,101050.38
2023-03-29T15:27:10.565Z,101070.41
2023-03-29T15:29:14.307Z,101070.63
2023-03-29T15:31:20.172Z,101073.13
2023-03-29T15:33:22.945Z,101069.41
2023-03-29T15:35:25.171Z,101068.59
2023-03-29T15:37:27.453Z,101047.81
2023-03-29T15:39:29.359Z,101063.63
2023-03-29T15:41:30.927Z,101043.34
2023-03-29T15:43:32.559Z,101037.69
2023-03-29T15:45:33.984Z,101039.84
2023-03-29T15:47:35.403Z,101038.75
2023-03-29T15:49:37.094Z,101047.59
2023-03-29T15:51:39.131Z,101032.53
2023-03-29T15:53:40.986Z,101029.84
2023-03-29T15:55:46.026Z,101017.00
2023-03-29T15:57:48.699Z,101036.53
2023-03-29T15:59:50.602Z,101019.50
2023-03-29T16:01:52.312Z,101027.03
2023-03-29T16:03:53.779Z,101038.00
2023-03-29T16:05:55.459Z,101032.13
2023-03-29T16:07:57.058Z,101025.09
2023-03-29T16:09:58.489Z,101015.22
2023-03-29T16:11:59.894Z,101025.22
2023-03-29T16:14:01.536Z,100994.09
2023-03-29T16:16:03.270Z,101015.53
2023-03-29T16:18:05.194Z,101019.09
2023-03-29T16:20:07.519Z,101017.28
2023-03-29T16:22:08.940Z,101000.84
2023-03-29T16:24:16.336Z,101011.09
2023-03-29T16:26:17.897Z,101003.16
2023-03-29T16:28:19.296Z,101014.22
2023-03-29T16:30:20.746Z,101014.56
2023-03-29T16:32:22.539Z,100985.47
2023-03-29T16:34:24.065Z,101016.63
2023-03-29T16:36:25.533Z,100992.38
2023-03-29T16:38:27.238Z,100985.81
2023-03-29T16:40:28.755Z,101003.25
2023-03-29T16:42:30.177Z,101006.53
2023-03-29T16:44:32.442Z,101009.03
2023-03-29T16:46:34.195Z,101002.09
2023-03-29T16:48:36.037Z,101004.00
2023-03-29T16:50:37.582Z,100999.25
2023-03-29T16:52:39.353Z,100995.59
2023-03-29T16:54:40.759Z,100993.94
2023-03-29T16:56:42.204Z,100983.03
2023-03-29T16:58:44.101Z,101007.78
2023-03-29T17:00:47.934Z,101003.94
2023-03-29T17:02:50.132Z,101004.19
2023-03-29T17:04:51.701Z,100997.09
2023-03-29T17:06:53.147Z,101002.13
2023-03-29T17:08:54.661Z,101002.50
2023-03-29T17:10:56.270Z,100992.91
2023-03-29T17:12:57.720Z,101000.19
2023-03-29T17:14:59.530Z,100996.72
2023-03-29T17:17:01.394Z,101005.50
2023-03-29T17:19:02.799Z,100987.03
2023-03-29T17:21:04.724Z,101005.34
2023-03-29T17:23:06.252Z,101006.34
2023-03-29T17:25:08.729Z,101008.25
2023-03-29T17:27:10.625Z,100993.91
2023-03-29T17:29:12.038Z,101005.28
2023-03-29T17:31:13.495Z,100997.16
2023-03-29T17:33:15.126Z,100985.53
2023-03-29T17:35:16.645Z,100982.66
2023-03-29T17:37:18.139Z,101000.66
2023-03-29T17:39:19.632Z,101003.06
2023-03-29T17:41:21.518Z,100997.78
2023-03-29T17:43:23.042Z,100997.28
2023-03-29T17:45:24.541Z,100994.06
2023-03-29T17:47:25.958Z,101000.53
2023-03-29T17:49:27.516Z,101003.63
2023-03-29T17:51:29.238Z,101006.88
2023-03-29T17:53:30.678Z,101003.78
2023-03-29T17:55:32.105Z,100997.34
2023-03-29T17:57:33.697Z,101000.59
2023-03-29T17:59:35.088Z,100987.41
2023-03-29T18:01:38.999Z,100988.84
2023-03-29T18:03:41.868Z,101005.50
2023-03-29T18:05:43.300Z,100998.31
2023-03-29T18:07:44.737Z,100989.94
2023-03-29T18:09:46.400Z,101008.03
2023-03-29T18:11:47.808Z,101004.19
2023-03-29T18:13:50.866Z,101006.25
2023-03-29T18:15:56.145Z,101013.56
2023-03-29T18:17:57.676Z,101001.81
2023-03-29T18:19:59.155Z,100996.03
2023-03-29T18:22:00.632Z,101010.91
2023-03-29T18:24:02.331Z,101006.25
2023-03-29T18:26:04.480Z,100988.22
2023-03-29T18:28:06.388Z,100998.19
2023-03-29T18:30:08.868Z,101000.94
2023-03-29T18:32:11.397Z,101006.34
2023-03-29T18:34:13.071Z,101010.91
2023-03-29T18:36:15.035Z,101004.69
2023-03-29T18:38:17.486Z,101010.41
2023-03-29T18:40:19.298Z,101008.63
2023-03-29T18:42:20.702Z,100988.13
2023-03-29T18:44:22.092Z,101002.72
2023-03-29T18:46:23.812Z,101004.03
2023-03-29T18:48:25.580Z,101005.75
2023-03-29T18:50:26.972Z,100995.56
2023-03-29T18:52:28.888Z,101010.50
2023-03-29T18:54:30.351Z,100985.53
2023-03-29T18:56:31.977Z,100995.25
2023-03-29T18:58:34.431Z,101003.03
2023-03-29T19:00:36.866Z,100951.91
2023-03-29T19:02:39.494Z,100992.22
2023-03-29T19:04:41.269Z,100998.91
2023-03-29T19:06:42.662Z,100995.44
2023-03-29T19:08:44.111Z,101000.94
2023-03-29T19:10:45.612Z,100984.84
2023-03-29T19:12:47.035Z,100991.75
2023-03-29T19:14:48.476Z,100984.59
2023-03-29T19:16:51.817Z,100969.66
2023-03-29T19:18:53.503Z,100987.63
2023-03-29T19:20:55.018Z,100974.63
2023-03-29T19:22:57.084Z,100961.09
2023-03-29T19:24:58.496Z,100957.63
2023-03-29T19:26:59.954Z,100963.09
2023-03-29T19:29:01.696Z,100956.72
2023-03-29T19:31:04.157Z,100958.78
2023-03-29T19:33:05.639Z,100951.84
2023-03-29T19:35:07.526Z,100946.28
2023-03-29T19:37:08.948Z,100950.34
2023-03-29T19:39:10.328Z,100941.00
2023-03-29T19:41:11.851Z,100936.69
2023-03-29T19:43:13.384Z,100940.22
2023-03-29T19:45:15.153Z,100928.47
2023-03-29T19:47:16.576Z,100940.13
2023-03-29T19:49:18.017Z,100945.47
2023-03-29T19:51:19.495Z,100935.50
2023-03-29T19:53:20.981Z,100937.88
2023-03-29T19:55:22.802Z,100934.09
2023-03-29T19:57:24.978Z,100936.66
2023-03-29T19:59:27.093Z,100941.13
2023-03-29T20:01:28.552Z,100920.72
2023-03-29T20:03:30.066Z,100931.44
2023-03-29T20:05:31.772Z,100934.78
2023-03-29T20:07:33.175Z,100933.34
2023-03-29T20:09:34.672Z,100932.09
2023-03-29T20:11:36.138Z,100921.16
2023-03-29T20:13:40.479Z,100936.06
2023-03-29T20:15:45.563Z,100918.59
2023-03-29T20:17:47.079Z,100931.91
2023-03-29T20:19:48.588Z,100935.03
2023-03-29T20:21:53.648Z,100922.34
2023-03-29T20:23:56.209Z,100936.16
2023-03-29T20:25:58.236Z,100936.94
2023-03-29T20:27:59.815Z,100934.97
2023-03-29T20:30:01.322Z,100933.66
2023-03-29T20:32:03.225Z,100929.97
2023-03-29T20:34:04.840Z,100921.03
2023-03-29T20:36:06.632Z,100919.34
2023-03-29T20:38:08.214Z,100926.88
2023-03-29T20:40:09.941Z,100926.94
2023-03-29T20:42:11.405Z,100911.94
2023-03-29T20:44:13.963Z,100924.19
2023-03-29T20:46:15.552Z,100916.03
2023-03-29T20:48:17.611Z,100915.34
2023-03-29T20:50:19.309Z,100919.50
2023-03-29T20:52:22.312Z,100906.09
2023-03-29T20:54:24.635Z,100915.94
2023-03-29T20:56:26.021Z,100914.28
2023-03-29T20:58:27.612Z,100918.13
2023-03-29T21:00:32.003Z,100896.44
2023-03-29T21:02:33.491Z,100875.78
2023-03-29T21:04:35.075Z,100880.69
2023-03-29T21:06:43.385Z,100902.50
2023-03-29T21:08:46.674Z,100900.53
2023-03-29T21:10:48.667Z,100895.28
2023-03-29T21:12:51.577Z,100900.81
2023-03-29T21:14:53.201Z,100895.81
2023-03-29T21:16:54.786Z,100892.69
2023-03-29T21:18:56.464Z,100890.78
2023-03-29T21:20:58.074Z,100888.50
2023-03-29T21:22:59.922Z,100896.31
2023-03-29T21:25:01.921Z,100884.41
2023-03-29T21:27:03.575Z,100884.84
2023-03-29T21:29:05.196Z,100878.13
2023-03-29T21:31:07.631Z,100876.69
2023-03-29T21:33:09.352Z,100852.81
2023-03-29T21:35:10.934Z,100880.81
2023-03-29T21:37:14.618Z,100878.91
2023-03-29T21:39:16.819Z,100873.94
2023-03-29T21:41:18.766Z,100877.69
2023-03-29T21:43:20.258Z,100877.06
2023-03-29T21:45:21.772Z,100865.03
2023-03-29T21:47:23.295Z,100874.31
2023-03-29T21:49:24.730Z,100879.84
2023-03-29T21:51:26.243Z,100866.25
2023-03-29T21:53:28.009Z,100881.06
2023-03-29T21:55:29.486Z,100850.38
2023-03-29T21:57:31.329Z,100869.72
2023-03-29T21:59:32.908Z,100865.53
2023-03-29T22:01:34.353Z,100864.03
2023-03-29T22:03:37.198Z,100867.66
2023-03-29T22:05:38.667Z,100857.78
2023-03-29T22:07:40.069Z,100869.91
2023-03-29T22:09:41.667Z,100863.31
2023-03-29T22:11:43.318Z,100859.09
2023-03-29T22:13:44.945Z,100858.38
2023-03-29T22:15:46.433Z,100846.31
2023-03-29T22:17:48.335Z,100858.06
2023-03-29T22:19:49.743Z,100837.72
2023-03-29T22:21:51.306Z,100853.16
2023-03-29T22:23:55.450Z,100845.63
2023-03-29T22:25:56.845Z,100849.09
2023-03-29T22:27:58.555Z,100855.03
2023-03-29T22:30:00.220Z,100838.72
2023-03-29T22:32:01.651Z,100839.47
2023-03-29T22:34:03.655Z,100847.34
2023-03-29T22:36:31.551Z,100840.75
2023-03-29T22:38:32.945Z,100821.06
2023-03-29T22:40:34.547Z,100848.97
2023-03-29T22:42:36.390Z,100844.53
2023-03-29T22:44:37.808Z,100796.88
2023-03-29T22:46:39.435Z,100837.06
2023-03-29T22:48:41.189Z,100837.69
2023-03-29T22:50:45.992Z,100809.13
2023-03-29T22:52:47.608Z,100824.34
2023-03-29T22:54:49.297Z,100811.31
2023-03-29T22:56:50.823Z,100829.41
2023-03-29T22:58:52.406Z,100818.72
2023-03-29T23:00:54.076Z,100815.84
2023-03-29T23:02:55.574Z,100819.38
2023-03-29T23:04:57.214Z,100823.69
2023-03-29T23:06:58.891Z,100817.66
2023-03-29T23:09:00.310Z,100809.81
2023-03-29T23:11:03.228Z,100814.00
2023-03-29T23:13:05.061Z,100809.97
2023-03-29T23:15:07.185Z,100807.13
2023-03-29T23:17:08.664Z,100792.06
2023-03-29T23:19:10.157Z,100806.72
2023-03-29T23:21:11.552Z,100809.75
2023-03-29T23:23:13.270Z,100801.44
2023-03-29T23:25:14.954Z,100794.50
2023-03-29T23:27:16.470Z,100798.41
2023-03-29T23:29:18.099Z,100791.09
2023-03-29T23:31:20.041Z,100794.97
2023-03-29T23:33:21.587Z,100794.75
2023-03-29T23:35:23.078Z,100787.88
2023-03-29T23:37:24.679Z,100792.44
2023-03-29T23:39:26.077Z,100793.91
2023-03-29T23:41:27.675Z,100793.56
2023-03-29T23:43:31.939Z,100788.53
2023-03-29T23:45:36.080Z,100793.97
2023-03-29T23:47:37.598Z,100789.41